sensor_id;sensor_type;location;lat;lon;timestamp;P1;durP1;ratioP1;P2;durP2;ratioP2
3779;SDS011;1905;52.482;9.802;2023-09-19T00:00:43;6.87;;;1.90;;
3779;SDS011;1905;52.482;9.802;2023-09-19T00:03:14;6.43;;;1.47;;
3779;SDS011;1905;52.482;9.802;2023-09-19T00:05:42;7.20;;;1.77;;
3779;SDS011;1905;52.482;9.802;2023-09-19T00:08:12;6.87;;;1.70;;
3779;SDS011;1905;52.482;9.802;2023-09-19T00:10:40;6.30;;;1.67;;
3779;SDS011;1905;52.482;9.802;2023-09-19T00:13:09;6.00;;;1.60;;
3779;SDS011;1905;52.482;9.802;2023-09-19T00:15:42;6.50;;;1.50;;
3779;SDS011;1905;52.482;9.802;2023-09-19T00:18:15;7.57;;;1.73;;
3779;SDS011;1905;52.482;9.802;2023-09-19T00:20:43;6.90;;;2.10;;
3779;SDS011;1905;52.482;9.802;2023-09-19T00:23:14;7.63;;;1.90;;
3779;SDS011;1905;52.482;9.802;2023-09-19T00:25:41;8.40;;;1.90;;
3779;SDS011;1905;52.482;9.802;2023-09-19T00:28:09;8.90;;;1.97;;
3779;SDS011;1905;52.482;9.802;2023-09-19T00:30:37;8.20;;;2.20;;
3779;SDS011;1905;52.482;9.802;2023-09-19T00:33:07;9.33;;;1.80;;
3779;SDS011;1905;52.482;9.802;2023-09-19T00:35:34;7.83;;;2.00;;
3779;SDS011;1905;52.482;9.802;2023-09-19T00:38:03;9.13;;;2.63;;
3779;SDS011;1905;52.482;9.802;2023-09-19T00:40:33;7.00;;;2.57;;
3779;SDS011;1905;52.482;9.802;2023-09-19T00:43:01;8.30;;;2.40;;
3779;SDS011;1905;52.482;9.802;2023-09-19T00:45:30;12.03;;;2.57;;
3779;SDS011;1905;52.482;9.802;2023-09-19T00:47:59;9.43;;;2.73;;
3779;SDS011;1905;52.482;9.802;2023-09-19T00:50:31;12.23;;;3.20;;
3779;SDS011;1905;52.482;9.802;2023-09-19T00:52:59;13.63;;;3.03;;
3779;SDS011;1905;52.482;9.802;2023-09-19T00:55:27;7.57;;;2.63;;
3779;SDS011;1905;52.482;9.802;2023-09-19T00:57:59;7.80;;;2.50;;
3779;SDS011;1905;52.482;9.802;2023-09-19T01:00:27;11.83;;;3.27;;
3779;SDS011;1905;52.482;9.802;2023-09-19T01:02:56;8.57;;;3.20;;
3779;SDS011;1905;52.482;9.802;2023-09-19T01:05:24;11.87;;;3.63;;
3779;SDS011;1905;52.482;9.802;2023-09-19T01:07:53;9.33;;;2.90;;
3779;SDS011;1905;52.482;9.802;2023-09-19T01:10:21;8.60;;;3.30;;
3779;SDS011;1905;52.482;9.802;2023-09-19T01:12:53;7.83;;;2.93;;
3779;SDS011;1905;52.482;9.802;2023-09-19T01:15:31;8.33;;;3.50;;
3779;SDS011;1905;52.482;9.802;2023-09-19T01:18:11;11.37;;;3.20;;
3779;SDS011;1905;52.482;9.802;2023-09-19T01:20:53;9.40;;;3.20;;
3779;SDS011;1905;52.482;9.802;2023-09-19T01:23:34;11.03;;;3.80;;
3779;SDS011;1905;52.482;9.802;2023-09-19T01:26:25;11.30;;;3.03;;
3779;SDS011;1905;52.482;9.802;2023-09-19T01:29:17;8.50;;;2.90;;
3779;SDS011;1905;52.482;9.802;2023-09-19T01:32:01;8.70;;;3.40;;
3779;SDS011;1905;52.482;9.802;2023-09-19T01:34:43;9.00;;;3.17;;
3779;SDS011;1905;52.482;9.802;2023-09-19T01:37:13;9.50;;;3.30;;
3779;SDS011;1905;52.482;9.802;2023-09-19T01:39:45;7.70;;;3.70;;
3779;SDS011;1905;52.482;9.802;2023-09-19T01:42:18;7.97;;;2.97;;
3779;SDS011;1905;52.482;9.802;2023-09-19T01:44:54;10.40;;;3.53;;
3779;SDS011;1905;52.482;9.802;2023-09-19T01:47:28;12.37;;;3.40;;
3779;SDS011;1905;52.482;9.802;2023-09-19T01:50:02;9.13;;;3.50;;
3779;SDS011;1905;52.482;9.802;2023-09-19T01:52:48;10.17;;;3.37;;
3779;SDS011;1905;52.482;9.802;2023-09-19T01:55:21;9.20;;;4.10;;
3779;SDS011;1905;52.482;9.802;2023-09-19T01:57:54;11.77;;;4.07;;
3779;SDS011;1905;52.482;9.802;2023-09-19T02:00:31;9.93;;;3.90;;
3779;SDS011;1905;52.482;9.802;2023-09-19T02:03:02;9.13;;;4.20;;
3779;SDS011;1905;52.482;9.802;2023-09-19T02:05:31;10.97;;;3.93;;
3779;SDS011;1905;52.482;9.802;2023-09-19T02:07:59;8.77;;;3.53;;
3779;SDS011;1905;52.482;9.802;2023-09-19T02:10:27;10.73;;;4.10;;
3779;SDS011;1905;52.482;9.802;2023-09-19T02:12:59;11.20;;;3.80;;
3779;SDS011;1905;52.482;9.802;2023-09-19T02:15:27;10.23;;;4.13;;
3779;SDS011;1905;52.482;9.802;2023-09-19T02:17:54;15.97;;;4.80;;
3779;SDS011;1905;52.482;9.802;2023-09-19T02:20:24;11.63;;;3.83;;
3779;SDS011;1905;52.482;9.802;2023-09-19T02:22:52;12.40;;;4.10;;
3779;SDS011;1905;52.482;9.802;2023-09-19T02:25:20;9.40;;;3.60;;
3779;SDS011;1905;52.482;9.802;2023-09-19T02:27:48;13.17;;;4.83;;
3779;SDS011;1905;52.482;9.802;2023-09-19T02:30:15;11.60;;;3.97;;
3779;SDS011;1905;52.482;9.802;2023-09-19T02:32:46;10.70;;;4.60;;
3779;SDS011;1905;52.482;9.802;2023-09-19T02:35:16;12.10;;;4.80;;
3779;SDS011;1905;52.482;9.802;2023-09-19T02:37:47;9.40;;;3.93;;
3779;SDS011;1905;52.482;9.802;2023-09-19T02:40:15;12.43;;;4.30;;
3779;SDS011;1905;52.482;9.802;2023-09-19T02:42:46;8.77;;;3.70;;
3779;SDS011;1905;52.482;9.802;2023-09-19T02:45:15;9.27;;;3.60;;
3779;SDS011;1905;52.482;9.802;2023-09-19T02:47:44;11.03;;;4.10;;
3779;SDS011;1905;52.482;9.802;2023-09-19T02:50:12;10.13;;;4.90;;
3779;SDS011;1905;52.482;9.802;2023-09-19T02:52:42;11.40;;;4.60;;
3779;SDS011;1905;52.482;9.802;2023-09-19T02:55:12;11.63;;;3.80;;
3779;SDS011;1905;52.482;9.802;2023-09-19T02:57:40;9.37;;;4.30;;
3779;SDS011;1905;52.482;9.802;2023-09-19T03:00:09;9.73;;;4.20;;
3779;SDS011;1905;52.482;9.802;2023-09-19T03:02:38;9.40;;;3.53;;
3779;SDS011;1905;52.482;9.802;2023-09-19T03:05:08;12.00;;;3.73;;
3779;SDS011;1905;52.482;9.802;2023-09-19T03:07:37;11.67;;;4.80;;
3779;SDS011;1905;52.482;9.802;2023-09-19T03:10:06;11.27;;;4.07;;
3779;SDS011;1905;52.482;9.802;2023-09-19T03:12:36;11.17;;;4.70;;
3779;SDS011;1905;52.482;9.802;2023-09-19T03:15:06;9.77;;;4.60;;
3779;SDS011;1905;52.482;9.802;2023-09-19T03:17:35;9.60;;;4.63;;
3779;SDS011;1905;52.482;9.802;2023-09-19T03:20:04;13.30;;;4.60;;
3779;SDS011;1905;52.482;9.802;2023-09-19T03:22:35;9.50;;;4.00;;
3779;SDS011;1905;52.482;9.802;2023-09-19T03:25:04;10.93;;;4.27;;
3779;SDS011;1905;52.482;9.802;2023-09-19T03:27:37;11.00;;;4.20;;
3779;SDS011;1905;52.482;9.802;2023-09-19T03:30:06;11.20;;;4.63;;
3779;SDS011;1905;52.482;9.802;2023-09-19T03:32:36;11.13;;;3.93;;
3779;SDS011;1905;52.482;9.802;2023-09-19T03:35:04;9.00;;;3.53;;
3779;SDS011;1905;52.482;9.802;2023-09-19T03:37:33;10.43;;;4.23;;
3779;SDS011;1905;52.482;9.802;2023-09-19T03:40:01;11.10;;;3.60;;
3779;SDS011;1905;52.482;9.802;2023-09-19T03:42:32;11.93;;;3.73;;
3779;SDS011;1905;52.482;9.802;2023-09-19T03:45:04;9.27;;;3.40;;
3779;SDS011;1905;52.482;9.802;2023-09-19T03:47:33;11.00;;;3.90;;
3779;SDS011;1905;52.482;9.802;2023-09-19T03:50:02;11.77;;;3.77;;
3779;SDS011;1905;52.482;9.802;2023-09-19T03:52:30;8.30;;;3.30;;
3779;SDS011;1905;52.482;9.802;2023-09-19T03:54:58;9.93;;;3.60;;
3779;SDS011;1905;52.482;9.802;2023-09-19T03:57:26;9.20;;;2.90;;
3779;SDS011;1905;52.482;9.802;2023-09-19T03:59:53;12.23;;;3.13;;
3779;SDS011;1905;52.482;9.802;2023-09-19T04:02:23;19.83;;;6.20;;
3779;SDS011;1905;52.482;9.802;2023-09-19T04:04:51;10.93;;;2.90;;
3779;SDS011;1905;52.482;9.802;2023-09-19T04:07:19;9.60;;;2.90;;
3779;SDS011;1905;52.482;9.802;2023-09-19T04:09:49;9.63;;;3.33;;
3779;SDS011;1905;52.482;9.802;2023-09-19T04:12:16;13.63;;;3.30;;
3779;SDS011;1905;52.482;9.802;2023-09-19T04:14:44;12.10;;;3.57;;
3779;SDS011;1905;52.482;9.802;2023-09-19T04:17:12;8.10;;;3.00;;
3779;SDS011;1905;52.482;9.802;2023-09-19T04:19:42;9.43;;;3.40;;
3779;SDS011;1905;52.482;9.802;2023-09-19T04:22:12;12.10;;;3.23;;
3779;SDS011;1905;52.482;9.802;2023-09-19T04:24:39;9.70;;;2.83;;
3779;SDS011;1905;52.482;9.802;2023-09-19T04:27:08;15.60;;;3.20;;
3779;SDS011;1905;52.482;9.802;2023-09-19T04:29:36;8.80;;;2.90;;
3779;SDS011;1905;52.482;9.802;2023-09-19T04:32:04;9.43;;;3.23;;
3779;SDS011;1905;52.482;9.802;2023-09-19T04:34:32;13.73;;;3.33;;
3779;SDS011;1905;52.482;9.802;2023-09-19T04:37:02;11.90;;;3.53;;
3779;SDS011;1905;52.482;9.802;2023-09-19T04:39:30;11.07;;;4.27;;
3779;SDS011;1905;52.482;9.802;2023-09-19T04:41:57;13.13;;;3.60;;
3779;SDS011;1905;52.482;9.802;2023-09-19T04:44:25;10.00;;;2.80;;
3779;SDS011;1905;52.482;9.802;2023-09-19T04:46:54;10.50;;;4.07;;
3779;SDS011;1905;52.482;9.802;2023-09-19T04:49:22;10.63;;;3.23;;
3779;SDS011;1905;52.482;9.802;2023-09-19T04:51:50;9.50;;;3.20;;
3779;SDS011;1905;52.482;9.802;2023-09-19T04:54:19;10.40;;;3.10;;
3779;SDS011;1905;52.482;9.802;2023-09-19T04:56:46;11.70;;;3.37;;
3779;SDS011;1905;52.482;9.802;2023-09-19T04:59:14;10.50;;;3.40;;
3779;SDS011;1905;52.482;9.802;2023-09-19T05:01:42;12.63;;;4.57;;
3779;SDS011;1905;52.482;9.802;2023-09-19T05:04:10;19.23;;;4.10;;
3779;SDS011;1905;52.482;9.802;2023-09-19T05:06:38;9.83;;;2.80;;
3779;SDS011;1905;52.482;9.802;2023-09-19T05:09:05;9.97;;;3.83;;
3779;SDS011;1905;52.482;9.802;2023-09-19T05:11:35;20.60;;;4.40;;
3779;SDS011;1905;52.482;9.802;2023-09-19T05:14:04;8.63;;;3.40;;
3779;SDS011;1905;52.482;9.802;2023-09-19T05:16:32;8.77;;;3.10;;
3779;SDS011;1905;52.482;9.802;2023-09-19T05:19:00;12.03;;;3.53;;
3779;SDS011;1905;52.482;9.802;2023-09-19T05:21:28;13.50;;;3.47;;
3779;SDS011;1905;52.482;9.802;2023-09-19T05:23:57;14.30;;;4.63;;
3779;SDS011;1905;52.482;9.802;2023-09-19T05:26:25;11.40;;;3.53;;
3779;SDS011;1905;52.482;9.802;2023-09-19T05:28:54;10.63;;;3.20;;
3779;SDS011;1905;52.482;9.802;2023-09-19T05:31:21;12.87;;;3.83;;
3779;SDS011;1905;52.482;9.802;2023-09-19T05:33:49;15.43;;;4.10;;
3779;SDS011;1905;52.482;9.802;2023-09-19T05:36:17;15.27;;;4.80;;
3779;SDS011;1905;52.482;9.802;2023-09-19T05:38:45;11.33;;;4.50;;
3779;SDS011;1905;52.482;9.802;2023-09-19T05:41:16;14.83;;;5.20;;
3779;SDS011;1905;52.482;9.802;2023-09-19T05:43:44;18.07;;;4.77;;
3779;SDS011;1905;52.482;9.802;2023-09-19T05:46:13;13.87;;;4.33;;
3779;SDS011;1905;52.482;9.802;2023-09-19T05:48:42;12.00;;;4.90;;
3779;SDS011;1905;52.482;9.802;2023-09-19T05:51:36;11.10;;;5.47;;
3779;SDS011;1905;52.482;9.802;2023-09-19T05:54:03;14.33;;;5.50;;
3779;SDS011;1905;52.482;9.802;2023-09-19T05:56:31;13.23;;;4.60;;
3779;SDS011;1905;52.482;9.802;2023-09-19T05:58:59;12.27;;;5.53;;
3779;SDS011;1905;52.482;9.802;2023-09-19T06:01:28;11.30;;;5.03;;
3779;SDS011;1905;52.482;9.802;2023-09-19T06:03:57;16.80;;;5.77;;
3779;SDS011;1905;52.482;9.802;2023-09-19T06:06:26;13.10;;;5.17;;
3779;SDS011;1905;52.482;9.802;2023-09-19T06:08:54;13.03;;;5.83;;
3779;SDS011;1905;52.482;9.802;2023-09-19T06:11:21;12.47;;;4.97;;
3779;SDS011;1905;52.482;9.802;2023-09-19T06:13:52;20.90;;;6.63;;
3779;SDS011;1905;52.482;9.802;2023-09-19T06:16:20;13.30;;;4.30;;
3779;SDS011;1905;52.482;9.802;2023-09-19T06:18:49;13.40;;;5.77;;
3779;SDS011;1905;52.482;9.802;2023-09-19T06:21:19;11.33;;;5.17;;
3779;SDS011;1905;52.482;9.802;2023-09-19T06:23:46;12.00;;;5.60;;
3779;SDS011;1905;52.482;9.802;2023-09-19T06:26:14;13.57;;;4.70;;
3779;SDS011;1905;52.482;9.802;2023-09-19T06:28:41;13.23;;;5.07;;
3779;SDS011;1905;52.482;9.802;2023-09-19T06:31:10;10.50;;;4.70;;
3779;SDS011;1905;52.482;9.802;2023-09-19T06:33:38;14.70;;;5.43;;
3779;SDS011;1905;52.482;9.802;2023-09-19T06:36:08;11.97;;;4.13;;
3779;SDS011;1905;52.482;9.802;2023-09-19T06:38:36;13.70;;;5.40;;
3779;SDS011;1905;52.482;9.802;2023-09-19T06:41:05;11.80;;;4.60;;
3779;SDS011;1905;52.482;9.802;2023-09-19T06:43:34;13.27;;;5.10;;
3779;SDS011;1905;52.482;9.802;2023-09-19T06:46:02;15.53;;;5.17;;
3779;SDS011;1905;52.482;9.802;2023-09-19T06:48:30;17.30;;;4.97;;
3779;SDS011;1905;52.482;9.802;2023-09-19T06:50:59;12.13;;;4.07;;
3779;SDS011;1905;52.482;9.802;2023-09-19T06:53:32;17.30;;;5.10;;
3779;SDS011;1905;52.482;9.802;2023-09-19T06:56:02;19.17;;;4.47;;
3779;SDS011;1905;52.482;9.802;2023-09-19T06:58:30;12.23;;;4.63;;
3779;SDS011;1905;52.482;9.802;2023-09-19T07:00:58;13.07;;;4.30;;
3779;SDS011;1905;52.482;9.802;2023-09-19T07:03:25;11.87;;;4.17;;
3779;SDS011;1905;52.482;9.802;2023-09-19T07:05:55;12.53;;;3.27;;
3779;SDS011;1905;52.482;9.802;2023-09-19T07:08:24;16.97;;;5.50;;
3779;SDS011;1905;52.482;9.802;2023-09-19T07:10:53;13.77;;;3.70;;
3779;SDS011;1905;52.482;9.802;2023-09-19T07:13:23;12.00;;;3.27;;
3779;SDS011;1905;52.482;9.802;2023-09-19T07:15:51;15.50;;;3.37;;
3779;SDS011;1905;52.482;9.802;2023-09-19T07:18:20;11.03;;;3.27;;
3779;SDS011;1905;52.482;9.802;2023-09-19T07:20:48;10.33;;;2.40;;
3779;SDS011;1905;52.482;9.802;2023-09-19T07:23:16;9.43;;;3.17;;
3779;SDS011;1905;52.482;9.802;2023-09-19T07:25:44;17.83;;;2.93;;
3779;SDS011;1905;52.482;9.802;2023-09-19T07:28:14;10.77;;;2.63;;
3779;SDS011;1905;52.482;9.802;2023-09-19T07:30:42;9.90;;;2.90;;
3779;SDS011;1905;52.482;9.802;2023-09-19T07:33:10;9.07;;;2.77;;
3779;SDS011;1905;52.482;9.802;2023-09-19T07:35:38;12.83;;;2.60;;
3779;SDS011;1905;52.482;9.802;2023-09-19T07:38:07;21.37;;;2.90;;
3779;SDS011;1905;52.482;9.802;2023-09-19T07:40:34;9.87;;;2.50;;
3779;SDS011;1905;52.482;9.802;2023-09-19T07:43:03;10.50;;;2.53;;
3779;SDS011;1905;52.482;9.802;2023-09-19T07:45:32;12.73;;;2.27;;
3779;SDS011;1905;52.482;9.802;2023-09-19T07:48:00;12.93;;;2.93;;
3779;SDS011;1905;52.482;9.802;2023-09-19T07:50:30;11.93;;;2.40;;
3779;SDS011;1905;52.482;9.802;2023-09-19T07:53:00;13.90;;;1.87;;
3779;SDS011;1905;52.482;9.802;2023-09-19T07:55:31;9.90;;;2.50;;
3779;SDS011;1905;52.482;9.802;2023-09-19T07:58:00;12.60;;;2.43;;
3779;SDS011;1905;52.482;9.802;2023-09-19T08:00:30;11.93;;;2.10;;
3779;SDS011;1905;52.482;9.802;2023-09-19T08:03:00;11.80;;;2.17;;
3779;SDS011;1905;52.482;9.802;2023-09-19T08:05:38;9.77;;;2.20;;
3779;SDS011;1905;52.482;9.802;2023-09-19T08:08:09;9.73;;;2.00;;
3779;SDS011;1905;52.482;9.802;2023-09-19T08:10:41;9.40;;;1.77;;
3779;SDS011;1905;52.482;9.802;2023-09-19T08:13:12;12.03;;;2.80;;
3779;SDS011;1905;52.482;9.802;2023-09-19T08:15:42;10.53;;;2.47;;
3779;SDS011;1905;52.482;9.802;2023-09-19T08:18:12;9.23;;;2.50;;
3779;SDS011;1905;52.482;9.802;2023-09-19T08:20:40;12.90;;;3.07;;
3779;SDS011;1905;52.482;9.802;2023-09-19T08:23:08;10.40;;;1.90;;
3779;SDS011;1905;52.482;9.802;2023-09-19T08:25:36;11.10;;;2.43;;
3779;SDS011;1905;52.482;9.802;2023-09-19T08:28:05;11.73;;;2.60;;
3779;SDS011;1905;52.482;9.802;2023-09-19T08:30:35;10.97;;;2.13;;
3779;SDS011;1905;52.482;9.802;2023-09-19T08:33:06;10.30;;;2.70;;
3779;SDS011;1905;52.482;9.802;2023-09-19T08:35:35;10.87;;;2.13;;
3779;SDS011;1905;52.482;9.802;2023-09-19T08:38:04;12.40;;;2.50;;
3779;SDS011;1905;52.482;9.802;2023-09-19T08:40:32;9.57;;;2.37;;
3779;SDS011;1905;52.482;9.802;2023-09-19T08:43:00;15.07;;;2.40;;
3779;SDS011;1905;52.482;9.802;2023-09-19T08:45:29;7.33;;;1.67;;
3779;SDS011;1905;52.482;9.802;2023-09-19T08:48:00;14.00;;;2.33;;
3779;SDS011;1905;52.482;9.802;2023-09-19T08:50:43;9.63;;;1.73;;
3779;SDS011;1905;52.482;9.802;2023-09-19T08:53:15;8.70;;;2.10;;
3779;SDS011;1905;52.482;9.802;2023-09-19T08:55:50;11.23;;;2.00;;
3779;SDS011;1905;52.482;9.802;2023-09-19T08:58:20;9.83;;;2.40;;
3779;SDS011;1905;52.482;9.802;2023-09-19T09:00:52;13.67;;;2.63;;
3779;SDS011;1905;52.482;9.802;2023-09-19T09:03:21;10.27;;;2.30;;
3779;SDS011;1905;52.482;9.802;2023-09-19T09:05:52;9.17;;;1.83;;
3779;SDS011;1905;52.482;9.802;2023-09-19T09:08:20;7.97;;;1.70;;
3779;SDS011;1905;52.482;9.802;2023-09-19T09:10:49;12.13;;;2.40;;
3779;SDS011;1905;52.482;9.802;2023-09-19T09:13:17;11.53;;;2.43;;
3779;SDS011;1905;52.482;9.802;2023-09-19T09:15:45;9.33;;;2.10;;
3779;SDS011;1905;52.482;9.802;2023-09-19T09:18:14;8.60;;;2.33;;
3779;SDS011;1905;52.482;9.802;2023-09-19T09:20:42;9.60;;;1.90;;
3779;SDS011;1905;52.482;9.802;2023-09-19T09:23:12;8.57;;;2.57;;
3779;SDS011;1905;52.482;9.802;2023-09-19T09:25:46;12.57;;;2.57;;
3779;SDS011;1905;52.482;9.802;2023-09-19T09:28:13;6.40;;;1.70;;
3779;SDS011;1905;52.482;9.802;2023-09-19T09:30:47;9.20;;;2.50;;
3779;SDS011;1905;52.482;9.802;2023-09-19T09:33:15;10.17;;;3.20;;
3779;SDS011;1905;52.482;9.802;2023-09-19T09:35:51;10.53;;;2.70;;
3779;SDS011;1905;52.482;9.802;2023-09-19T09:38:21;9.77;;;2.40;;
3779;SDS011;1905;52.482;9.802;2023-09-19T09:40:52;14.70;;;2.80;;
3779;SDS011;1905;52.482;9.802;2023-09-19T09:43:27;9.60;;;4.00;;
3779;SDS011;1905;52.482;9.802;2023-09-19T09:46:09;8.93;;;2.10;;
3779;SDS011;1905;52.482;9.802;2023-09-19T09:49:01;10.40;;;2.57;;
3779;SDS011;1905;52.482;9.802;2023-09-19T09:51:47;9.83;;;2.80;;
3779;SDS011;1905;52.482;9.802;2023-09-19T09:54:27;9.40;;;2.57;;
3779;SDS011;1905;52.482;9.802;2023-09-19T09:57:02;10.17;;;2.97;;
3779;SDS011;1905;52.482;9.802;2023-09-19T09:59:47;15.40;;;2.77;;
3779;SDS011;1905;52.482;9.802;2023-09-19T10:02:24;11.57;;;3.60;;
3779;SDS011;1905;52.482;9.802;2023-09-19T10:04:56;8.33;;;2.13;;
3779;SDS011;1905;52.482;9.802;2023-09-19T10:07:36;9.87;;;2.47;;
3779;SDS011;1905;52.482;9.802;2023-09-19T10:10:11;10.27;;;2.37;;
3779;SDS011;1905;52.482;9.802;2023-09-19T10:12:48;11.37;;;2.70;;
3779;SDS011;1905;52.482;9.802;2023-09-19T10:15:17;8.47;;;2.30;;
3779;SDS011;1905;52.482;9.802;2023-09-19T10:17:47;10.40;;;2.37;;
3779;SDS011;1905;52.482;9.802;2023-09-19T10:20:16;10.83;;;2.37;;
3779;SDS011;1905;52.482;9.802;2023-09-19T10:23:00;9.50;;;2.53;;
3779;SDS011;1905;52.482;9.802;2023-09-19T10:25:30;16.03;;;2.80;;
3779;SDS011;1905;52.482;9.802;2023-09-19T10:27:57;9.97;;;3.33;;
3779;SDS011;1905;52.482;9.802;2023-09-19T10:30:31;15.03;;;3.00;;
3779;SDS011;1905;52.482;9.802;2023-09-19T10:33:00;11.80;;;2.50;;
3779;SDS011;1905;52.482;9.802;2023-09-19T10:35:29;8.53;;;2.30;;
3779;SDS011;1905;52.482;9.802;2023-09-19T10:38:00;8.80;;;2.57;;
3779;SDS011;1905;52.482;9.802;2023-09-19T10:40:32;9.07;;;2.60;;
3779;SDS011;1905;52.482;9.802;2023-09-19T10:43:01;10.10;;;2.50;;
3779;SDS011;1905;52.482;9.802;2023-09-19T10:45:30;9.90;;;2.53;;
3779;SDS011;1905;52.482;9.802;2023-09-19T10:47:59;11.30;;;2.23;;
3779;SDS011;1905;52.482;9.802;2023-09-19T10:50:28;15.50;;;3.13;;
3779;SDS011;1905;52.482;9.802;2023-09-19T10:53:00;9.17;;;2.77;;
3779;SDS011;1905;52.482;9.802;2023-09-19T10:55:36;15.97;;;3.10;;
3779;SDS011;1905;52.482;9.802;2023-09-19T10:58:05;11.50;;;2.60;;
3779;SDS011;1905;52.482;9.802;2023-09-19T11:00:50;14.50;;;3.03;;
3779;SDS011;1905;52.482;9.802;2023-09-19T11:03:20;8.00;;;2.60;;
3779;SDS011;1905;52.482;9.802;2023-09-19T11:06:03;11.10;;;2.80;;
3779;SDS011;1905;52.482;9.802;2023-09-19T11:11:46;9.50;;;2.67;;
3779;SDS011;1905;52.482;9.802;2023-09-19T11:14:28;11.63;;;2.80;;
3779;SDS011;1905;52.482;9.802;2023-09-19T11:20:15;9.00;;;3.13;;
3779;SDS011;1905;52.482;9.802;2023-09-19T11:23:17;10.30;;;3.00;;
3779;SDS011;1905;52.482;9.802;2023-09-19T11:25:45;8.97;;;2.50;;
3779;SDS011;1905;52.482;9.802;2023-09-19T11:28:28;7.57;;;2.00;;
3779;SDS011;1905;52.482;9.802;2023-09-19T11:31:40;8.33;;;3.10;;
3779;SDS011;1905;52.482;9.802;2023-09-19T11:34:46;10.43;;;2.50;;
3779;SDS011;1905;52.482;9.802;2023-09-19T11:40:38;9.63;;;2.60;;
3779;SDS011;1905;52.482;9.802;2023-09-19T11:46:06;12.10;;;3.17;;
3779;SDS011;1905;52.482;9.802;2023-09-19T11:48:34;12.37;;;3.03;;
3779;SDS011;1905;52.482;9.802;2023-09-19T11:51:13;10.43;;;2.50;;
3779;SDS011;1905;52.482;9.802;2023-09-19T11:53:46;12.97;;;2.30;;
3779;SDS011;1905;52.482;9.802;2023-09-19T11:56:15;11.40;;;2.33;;
3779;SDS011;1905;52.482;9.802;2023-09-19T11:58:44;11.20;;;2.30;;
3779;SDS011;1905;52.482;9.802;2023-09-19T12:01:23;10.73;;;2.10;;
3779;SDS011;1905;52.482;9.802;2023-09-19T12:03:56;12.43;;;2.20;;
3779;SDS011;1905;52.482;9.802;2023-09-19T12:06:27;6.77;;;2.03;;
3779;SDS011;1905;52.482;9.802;2023-09-19T12:08:56;10.30;;;2.30;;
3779;SDS011;1905;52.482;9.802;2023-09-19T12:11:27;9.67;;;2.30;;
3779;SDS011;1905;52.482;9.802;2023-09-19T12:13:56;13.77;;;2.73;;
3779;SDS011;1905;52.482;9.802;2023-09-19T12:16:27;12.60;;;3.17;;
3779;SDS011;1905;52.482;9.802;2023-09-19T12:18:56;9.10;;;2.53;;
3779;SDS011;1905;52.482;9.802;2023-09-19T12:21:26;9.50;;;2.30;;
3779;SDS011;1905;52.482;9.802;2023-09-19T12:23:58;16.47;;;2.50;;
3779;SDS011;1905;52.482;9.802;2023-09-19T12:26:26;11.60;;;2.60;;
3779;SDS011;1905;52.482;9.802;2023-09-19T12:28:55;8.37;;;3.90;;
3779;SDS011;1905;52.482;9.802;2023-09-19T12:31:23;7.10;;;1.80;;
3779;SDS011;1905;52.482;9.802;2023-09-19T12:33:53;9.10;;;2.47;;
3779;SDS011;1905;52.482;9.802;2023-09-19T12:36:22;8.40;;;2.50;;
3779;SDS011;1905;52.482;9.802;2023-09-19T12:38:56;17.23;;;2.57;;
3779;SDS011;1905;52.482;9.802;2023-09-19T12:41:25;8.17;;;2.23;;
3779;SDS011;1905;52.482;9.802;2023-09-19T12:43:53;9.97;;;2.80;;
3779;SDS011;1905;52.482;9.802;2023-09-19T12:46:21;15.33;;;2.47;;
3779;SDS011;1905;52.482;9.802;2023-09-19T12:51:45;11.50;;;2.30;;
3779;SDS011;1905;52.482;9.802;2023-09-19T12:54:15;7.73;;;2.37;;
3779;SDS011;1905;52.482;9.802;2023-09-19T12:56:43;11.87;;;2.70;;
3779;SDS011;1905;52.482;9.802;2023-09-19T12:59:14;9.77;;;2.70;;
3779;SDS011;1905;52.482;9.802;2023-09-19T13:01:43;10.47;;;2.53;;
3779;SDS011;1905;52.482;9.802;2023-09-19T13:04:13;13.90;;;2.60;;
3779;SDS011;1905;52.482;9.802;2023-09-19T13:06:45;9.80;;;3.17;;
3779;SDS011;1905;52.482;9.802;2023-09-19T13:09:16;12.63;;;2.60;;
3779;SDS011;1905;52.482;9.802;2023-09-19T13:11:44;9.30;;;3.00;;
3779;SDS011;1905;52.482;9.802;2023-09-19T13:14:15;9.50;;;2.60;;
3779;SDS011;1905;52.482;9.802;2023-09-19T13:16:54;13.60;;;2.40;;
3779;SDS011;1905;52.482;9.802;2023-09-19T13:19:36;11.57;;;3.10;;
3779;SDS011;1905;52.482;9.802;2023-09-19T13:25:07;8.80;;;2.20;;
3779;SDS011;1905;52.482;9.802;2023-09-19T13:27:40;12.57;;;3.00;;
3779;SDS011;1905;52.482;9.802;2023-09-19T13:30:10;10.37;;;2.53;;
3779;SDS011;1905;52.482;9.802;2023-09-19T13:32:38;8.70;;;2.63;;
3779;SDS011;1905;52.482;9.802;2023-09-19T13:35:07;12.60;;;2.87;;
3779;SDS011;1905;52.482;9.802;2023-09-19T13:37:37;13.53;;;4.10;;
3779;SDS011;1905;52.482;9.802;2023-09-19T13:40:09;10.77;;;3.30;;
3779;SDS011;1905;52.482;9.802;2023-09-19T13:42:37;10.10;;;2.40;;
3779;SDS011;1905;52.482;9.802;2023-09-19T13:45:06;9.90;;;2.60;;
3779;SDS011;1905;52.482;9.802;2023-09-19T13:47:38;11.73;;;3.77;;
3779;SDS011;1905;52.482;9.802;2023-09-19T13:50:06;10.73;;;2.47;;
3779;SDS011;1905;52.482;9.802;2023-09-19T13:52:35;11.30;;;3.90;;
3779;SDS011;1905;52.482;9.802;2023-09-19T13:55:03;9.20;;;2.30;;
3779;SDS011;1905;52.482;9.802;2023-09-19T13:57:34;9.43;;;3.07;;
3779;SDS011;1905;52.482;9.802;2023-09-19T14:00:02;15.00;;;3.43;;
3779;SDS011;1905;52.482;9.802;2023-09-19T14:02:37;8.37;;;2.97;;
3779;SDS011;1905;52.482;9.802;2023-09-19T14:05:06;11.60;;;2.43;;
3779;SDS011;1905;52.482;9.802;2023-09-19T14:07:34;10.13;;;2.30;;
3779;SDS011;1905;52.482;9.802;2023-09-19T14:10:03;12.13;;;2.70;;
3779;SDS011;1905;52.482;9.802;2023-09-19T14:12:35;10.47;;;2.70;;
3779;SDS011;1905;52.482;9.802;2023-09-19T14:15:03;10.47;;;2.50;;
3779;SDS011;1905;52.482;9.802;2023-09-19T14:17:31;7.87;;;2.50;;
3779;SDS011;1905;52.482;9.802;2023-09-19T14:19:59;11.83;;;2.50;;
3779;SDS011;1905;52.482;9.802;2023-09-19T14:22:27;12.80;;;2.50;;
3779;SDS011;1905;52.482;9.802;2023-09-19T14:24:55;8.97;;;2.33;;
3779;SDS011;1905;52.482;9.802;2023-09-19T14:27:22;11.03;;;2.33;;
3779;SDS011;1905;52.482;9.802;2023-09-19T14:29:52;7.80;;;2.40;;
3779;SDS011;1905;52.482;9.802;2023-09-19T14:32:20;8.37;;;2.57;;
3779;SDS011;1905;52.482;9.802;2023-09-19T14:34:48;13.43;;;2.83;;
3779;SDS011;1905;52.482;9.802;2023-09-19T14:37:15;9.23;;;2.50;;
3779;SDS011;1905;52.482;9.802;2023-09-19T14:39:43;11.87;;;2.30;;
3779;SDS011;1905;52.482;9.802;2023-09-19T14:42:11;15.53;;;2.33;;
3779;SDS011;1905;52.482;9.802;2023-09-19T14:44:41;10.60;;;2.70;;
3779;SDS011;1905;52.482;9.802;2023-09-19T14:47:10;11.00;;;2.37;;
3779;SDS011;1905;52.482;9.802;2023-09-19T14:49:39;10.90;;;2.03;;
3779;SDS011;1905;52.482;9.802;2023-09-19T14:52:08;12.10;;;2.33;;
3779;SDS011;1905;52.482;9.802;2023-09-19T14:54:36;12.67;;;2.60;;
3779;SDS011;1905;52.482;9.802;2023-09-19T14:57:07;8.87;;;2.40;;
3779;SDS011;1905;52.482;9.802;2023-09-19T14:59:35;9.20;;;2.10;;
3779;SDS011;1905;52.482;9.802;2023-09-19T15:02:03;9.90;;;3.13;;
3779;SDS011;1905;52.482;9.802;2023-09-19T15:04:33;12.07;;;2.80;;
3779;SDS011;1905;52.482;9.802;2023-09-19T15:07:01;11.80;;;2.43;;
3779;SDS011;1905;52.482;9.802;2023-09-19T15:09:29;10.07;;;2.50;;
3779;SDS011;1905;52.482;9.802;2023-09-19T15:11:59;10.23;;;2.83;;
3779;SDS011;1905;52.482;9.802;2023-09-19T15:14:27;9.30;;;2.70;;
3779;SDS011;1905;52.482;9.802;2023-09-19T15:16:56;10.17;;;2.17;;
3779;SDS011;1905;52.482;9.802;2023-09-19T15:19:23;10.80;;;2.97;;
3779;SDS011;1905;52.482;9.802;2023-09-19T15:21:52;10.00;;;2.57;;
3779;SDS011;1905;52.482;9.802;2023-09-19T15:24:20;9.43;;;2.27;;
3779;SDS011;1905;52.482;9.802;2023-09-19T15:26:48;8.93;;;2.10;;
3779;SDS011;1905;52.482;9.802;2023-09-19T15:29:17;10.23;;;2.07;;
3779;SDS011;1905;52.482;9.802;2023-09-19T15:31:46;7.00;;;1.90;;
3779;SDS011;1905;52.482;9.802;2023-09-19T15:34:14;10.77;;;2.13;;
3779;SDS011;1905;52.482;9.802;2023-09-19T15:36:42;11.77;;;2.20;;
3779;SDS011;1905;52.482;9.802;2023-09-19T15:39:12;8.37;;;2.30;;
3779;SDS011;1905;52.482;9.802;2023-09-19T15:41:41;8.13;;;1.73;;
3779;SDS011;1905;52.482;9.802;2023-09-19T15:44:14;7.93;;;2.00;;
3779;SDS011;1905;52.482;9.802;2023-09-19T15:46:43;9.60;;;2.27;;